Lomax, Illinois
Current Conditions -  °F | °C
As of 10:53 PM on Thursday 27 Nov 2014 (Local Time) from KBRL Reporting Station
Overcast Overcast  
Wind Chill:   Ceiling: 9500
Heat Index: 14°   Visibility: 10mi
Dew Point:   Wind: 5mph
Humidity: 74%   Direction: 140°SE
Pressure: 30.39"   Gusts: NA
Location:  40.68°N, 91.07°W
Report Text: KBRL 280453Z AUTO 14004KT 10SM SCT065 OVC095 M10/M14 A3039 RMK AO2 SLP304 T11001139 PWINO FZRANO $
Loading
Personal Weather Stations






























Interactive Weather Map New forecast layout! Learn more

10-Day Weather Forecast

Advertisements
Track Severe Weather on mobile